createdAt,value
2017-07-07T00:00:16.496Z,19.54
2017-07-07T00:00:57.079Z,19.54
2017-07-07T00:01:37.663Z,19.56
2017-07-07T00:02:18.235Z,19.62
2017-07-07T00:02:58.807Z,19.59
2017-07-07T00:03:39.416Z,19.54
2017-07-07T00:04:20.034Z,19.63
2017-07-07T00:05:00.608Z,19.48
2017-07-07T00:05:41.212Z,19.55
2017-07-07T00:06:21.773Z,19.58
2017-07-07T00:07:02.354Z,19.47
2017-07-07T00:07:42.931Z,19.62
2017-07-07T00:08:23.526Z,19.54
2017-07-07T00:09:04.153Z,19.49
2017-07-07T00:09:44.704Z,19.49
2017-07-07T00:10:25.310Z,19.51
2017-07-07T00:11:05.895Z,19.58
2017-07-07T00:11:46.455Z,19.58
2017-07-07T00:12:27.038Z,19.51
2017-07-07T00:13:07.603Z,19.49
2017-07-07T00:13:48.173Z,19.55
2017-07-07T00:14:28.748Z,19.47
2017-07-07T00:15:10.454Z,19.52
2017-07-07T00:15:51.018Z,19.51
2017-07-07T00:16:31.599Z,19.51
2017-07-07T00:17:12.177Z,19.52
2017-07-07T00:17:52.763Z,19.52
2017-07-07T00:18:33.331Z,19.49
2017-07-07T00:19:13.905Z,19.4
2017-07-07T00:19:54.481Z,19.4
2017-07-07T00:20:35.081Z,19.37
2017-07-07T00:21:15.682Z,19.49
2017-07-07T00:21:56.244Z,19.41
2017-07-07T00:22:36.806Z,19.45
2017-07-07T00:23:17.381Z,19.48
2017-07-07T00:23:57.966Z,19.4
2017-07-07T00:24:38.534Z,19.44
2017-07-07T00:25:19.104Z,19.4
2017-07-07T00:25:59.675Z,19.45
2017-07-07T00:26:40.251Z,19.41
2017-07-07T00:27:20.817Z,19.49
2017-07-07T00:28:01.398Z,19.48
2017-07-07T00:28:41.964Z,19.45
2017-07-07T00:29:22.525Z,19.44
2017-07-07T00:30:03.094Z,19.39
2017-07-07T00:30:43.664Z,19.49
2017-07-07T00:31:24.269Z,19.41
2017-07-07T00:32:04.838Z,19.41
2017-07-07T00:32:45.412Z,19.44
2017-07-07T00:33:25.983Z,19.44
2017-07-07T00:34:06.546Z,19.31
2017-07-07T00:34:47.125Z,19.48
2017-07-07T00:35:27.714Z,19.37
2017-07-07T00:36:08.294Z,19.44
2017-07-07T00:36:48.874Z,19.4
2017-07-07T00:37:29.466Z,19.4
2017-07-07T00:38:10.043Z,19.4
2017-07-07T00:38:50.627Z,19.37
2017-07-07T00:39:31.200Z,19.37
2017-07-07T00:40:11.794Z,19.4
2017-07-07T00:40:52.362Z,19.39
2017-07-07T00:41:32.931Z,19.41
2017-07-07T00:42:13.502Z,19.37
2017-07-07T00:42:54.115Z,19.34
2017-07-07T00:43:34.693Z,19.31
2017-07-07T00:44:15.283Z,19.34
2017-07-07T00:44:55.861Z,19.4
2017-07-07T00:45:36.440Z,19.27
2017-07-07T00:46:17.035Z,19.36
2017-07-07T00:46:57.582Z,19.36
2017-07-07T00:47:38.227Z,19.4
2017-07-07T00:48:18.849Z,19.36
2017-07-07T00:48:59.421Z,19.33
2017-07-07T00:49:40.001Z,19.33
2017-07-07T00:50:20.574Z,19.36
2017-07-07T00:51:01.155Z,19.36
2017-07-07T00:51:41.727Z,19.36
2017-07-07T00:52:22.303Z,19.41
2017-07-07T00:53:02.874Z,19.24
2017-07-07T00:53:43.445Z,19.33
2017-07-07T00:54:24.010Z,19.3
2017-07-07T00:55:04.582Z,19.3
2017-07-07T00:55:45.152Z,19.21
2017-07-07T00:56:25.715Z,19.24
2017-07-07T00:57:06.306Z,19.29
2017-07-07T00:57:46.882Z,19.33
2017-07-07T00:58:27.470Z,19.31
2017-07-07T00:59:08.046Z,19.27
2017-07-07T00:59:48.659Z,19.27
2017-07-07T01:00:29.245Z,19.31
2017-07-07T01:01:09.822Z,19.24
2017-07-07T01:01:50.401Z,19.29
2017-07-07T01:02:30.976Z,19.27
2017-07-07T01:03:11.544Z,19.24
2017-07-07T01:03:52.121Z,19.31
2017-07-07T01:04:32.716Z,19.29
2017-07-07T01:05:13.296Z,19.3
2017-07-07T01:05:53.852Z,19.3
2017-07-07T01:06:34.473Z,19.36
2017-07-07T01:07:15.052Z,19.31
2017-07-07T01:07:55.675Z,19.26
2017-07-07T01:08:36.259Z,19.26
2017-07-07T01:09:16.836Z,19.34
2017-07-07T01:09:57.417Z,19.31
2017-07-07T01:10:37.991Z,19.3
2017-07-07T01:11:18.584Z,19.33
2017-07-07T01:11:59.148Z,19.3
2017-07-07T01:12:39.728Z,19.36
2017-07-07T01:13:20.311Z,19.34
2017-07-07T01:14:00.889Z,19.26
2017-07-07T01:14:41.457Z,19.31
2017-07-07T01:15:22.017Z,19.16
2017-07-07T01:16:02.612Z,19.29
2017-07-07T01:16:43.169Z,19.15
2017-07-07T01:17:23.746Z,19.21
2017-07-07T01:18:04.309Z,19.22
2017-07-07T01:18:44.889Z,19.18
2017-07-07T01:19:25.461Z,19.27
2017-07-07T01:20:06.026Z,19.22
2017-07-07T01:20:46.600Z,19.27
2017-07-07T01:21:27.177Z,19.15
2017-07-07T01:22:07.755Z,19.27
2017-07-07T01:22:48.320Z,19.22
2017-07-07T01:23:28.897Z,19.16
2017-07-07T01:24:09.458Z,19.15
2017-07-07T01:24:50.026Z,19.27
2017-07-07T01:25:30.599Z,19.16
2017-07-07T01:26:11.186Z,19.24
2017-07-07T01:26:51.775Z,19.26
2017-07-07T01:27:32.341Z,19.21
2017-07-07T01:28:12.919Z,19.29
2017-07-07T01:28:53.499Z,19.21
2017-07-07T01:29:34.070Z,19.26
2017-07-07T01:30:14.630Z,19.22
2017-07-07T01:30:55.205Z,19.18
2017-07-07T01:31:35.781Z,19.22
2017-07-07T01:32:16.362Z,19.27
2017-07-07T01:32:56.928Z,19.18
2017-07-07T01:33:37.503Z,19.19
2017-07-07T01:34:18.088Z,19.22
2017-07-07T01:34:58.708Z,19.26
2017-07-07T01:35:39.300Z,19.16
2017-07-07T01:36:19.890Z,19.33
2017-07-07T01:37:00.455Z,19.24
2017-07-07T01:37:41.021Z,19.26
2017-07-07T01:38:21.599Z,19.18
2017-07-07T01:39:02.170Z,19.21
2017-07-07T01:39:42.740Z,19.22
2017-07-07T01:40:23.318Z,19.15
2017-07-07T01:41:03.885Z,19.21
2017-07-07T01:41:44.457Z,19.24
2017-07-07T01:42:25.076Z,19.18
2017-07-07T01:43:05.599Z,19.26
2017-07-07T01:43:46.161Z,19.27
2017-07-07T01:44:26.735Z,19.26
2017-07-07T01:45:07.318Z,19.19
2017-07-07T01:45:47.959Z,19.24
2017-07-07T01:46:28.467Z,19.16
2017-07-07T01:47:09.035Z,19.21
2017-07-07T01:47:49.617Z,19.22
2017-07-07T01:48:30.317Z,19.24
2017-07-07T01:49:10.940Z,19.11
2017-07-07T01:49:51.517Z,19.21
2017-07-07T01:50:32.081Z,19.15
2017-07-07T01:51:12.649Z,19.24
2017-07-07T01:51:53.236Z,19.19
2017-07-07T01:52:33.825Z,19.19
2017-07-07T01:53:14.401Z,19.22
2017-07-07T01:53:54.972Z,19.24
2017-07-07T01:54:35.553Z,19.15
2017-07-07T01:55:16.117Z,19.19
2017-07-07T01:55:56.681Z,19.16
2017-07-07T01:56:37.251Z,19.16
2017-07-07T01:57:17.851Z,19.15
2017-07-07T01:57:58.421Z,19.19
2017-07-07T01:58:38.991Z,19.19
2017-07-07T01:59:19.554Z,19.15
2017-07-07T02:00:00.134Z,19.19
2017-07-07T02:00:40.696Z,19.18
2017-07-07T02:01:21.274Z,19.14
2017-07-07T02:02:01.845Z,19.15
2017-07-07T02:02:42.430Z,19.16
2017-07-07T02:03:23.002Z,19.16
2017-07-07T02:04:03.578Z,19.12
2017-07-07T02:04:44.145Z,19.04
2017-07-07T02:05:24.716Z,19.12
2017-07-07T02:06:05.311Z,19.11
2017-07-07T02:06:45.898Z,19.15
2017-07-07T02:07:26.470Z,19.09
2017-07-07T02:08:07.036Z,19.04
2017-07-07T02:08:47.615Z,19.08
2017-07-07T02:09:28.187Z,19
2017-07-07T02:10:08.758Z,19.09
2017-07-07T02:10:49.381Z,19.04
2017-07-07T02:11:29.902Z,19.11
2017-07-07T02:12:10.463Z,19.09
2017-07-07T02:12:51.027Z,19.09
2017-07-07T02:13:31.598Z,19.09
2017-07-07T02:14:12.217Z,19.09
2017-07-07T02:14:52.820Z,19.07
2017-07-07T02:15:33.393Z,19.02
2017-07-07T02:16:13.960Z,19.04
2017-07-07T02:16:55.350Z,19.02
2017-07-07T02:17:35.918Z,19
2017-07-07T02:18:16.525Z,18.98
2017-07-07T02:18:57.126Z,19.07
2017-07-07T02:19:37.711Z,19.08
2017-07-07T02:20:18.296Z,19.09
2017-07-07T02:20:58.866Z,19.11
2017-07-07T02:21:39.454Z,19.07
2017-07-07T02:22:20.049Z,19.07
2017-07-07T02:23:00.627Z,19.02
2017-07-07T02:23:41.201Z,19.04
2017-07-07T02:24:21.770Z,18.99
2017-07-07T02:25:02.339Z,19.04
2017-07-07T02:25:42.923Z,19.02
2017-07-07T02:26:23.494Z,19
2017-07-07T02:27:04.081Z,19.07
2017-07-07T02:27:44.692Z,18.92
2017-07-07T02:28:25.316Z,18.98
2017-07-07T02:29:05.893Z,19.04
2017-07-07T02:29:46.465Z,18.9
2017-07-07T02:30:27.035Z,19.09
2017-07-07T02:31:07.603Z,18.95
2017-07-07T02:31:48.184Z,18.9
2017-07-07T02:32:28.749Z,18.9
2017-07-07T02:33:09.336Z,19
2017-07-07T02:33:49.888Z,18.88
2017-07-07T02:34:30.482Z,19
2017-07-07T02:35:11.052Z,19.02
2017-07-07T02:35:51.633Z,18.96
2017-07-07T02:36:32.206Z,18.95
2017-07-07T02:37:12.780Z,19.04
2017-07-07T02:37:53.356Z,18.99
2017-07-07T02:38:34.029Z,18.96
2017-07-07T02:39:14.493Z,18.86
2017-07-07T02:39:55.053Z,18.89
2017-07-07T02:40:35.630Z,18.98
2017-07-07T02:41:16.205Z,18.86
2017-07-07T02:41:56.766Z,18.88
2017-07-07T02:42:37.347Z,18.92
2017-07-07T02:43:17.919Z,18.9
2017-07-07T02:43:58.482Z,18.89
2017-07-07T02:44:39.080Z,18.95
2017-07-07T02:45:19.645Z,18.92
2017-07-07T02:46:00.211Z,18.99
2017-07-07T02:46:40.781Z,18.96
2017-07-07T02:47:21.391Z,18.99
2017-07-07T02:48:01.926Z,19
2017-07-07T02:48:42.502Z,18.89
2017-07-07T02:49:23.074Z,18.96
2017-07-07T02:50:03.644Z,18.92
2017-07-07T02:50:44.214Z,18.86
2017-07-07T02:51:24.781Z,18.92
2017-07-07T02:52:05.349Z,18.89
2017-07-07T02:52:45.917Z,18.9
2017-07-07T02:53:26.481Z,18.88
2017-07-07T02:54:07.060Z,18.95
2017-07-07T02:54:47.642Z,18.95
2017-07-07T02:55:28.218Z,18.93
2017-07-07T02:56:08.807Z,18.89
2017-07-07T02:56:49.386Z,18.9
2017-07-07T02:57:29.955Z,18.93
2017-07-07T02:58:10.525Z,18.88
2017-07-07T02:58:51.094Z,18.95
2017-07-07T02:59:31.668Z,18.92
2017-07-07T03:00:12.246Z,18.89
2017-07-07T03:00:52.814Z,18.81
2017-07-07T03:02:30.438Z,18.89
2017-07-07T03:03:11.035Z,18.84
2017-07-07T03:03:51.626Z,18.8
2017-07-07T03:04:32.205Z,18.86
2017-07-07T03:05:12.788Z,18.9
2017-07-07T03:05:53.371Z,18.88
2017-07-07T03:06:33.994Z,18.92
2017-07-07T03:07:14.593Z,18.92
2017-07-07T03:07:55.166Z,18.93
2017-07-07T03:08:35.744Z,18.99
2017-07-07T03:09:16.314Z,18.9
2017-07-07T03:09:56.881Z,18.9
2017-07-07T03:10:37.466Z,18.84
2017-07-07T03:11:18.034Z,18.88
2017-07-07T03:11:58.594Z,18.92
2017-07-07T03:12:39.168Z,18.9
2017-07-07T03:13:19.753Z,18.92
2017-07-07T03:14:00.322Z,18.86
2017-07-07T03:14:40.895Z,18.88
2017-07-07T03:15:21.471Z,18.89
2017-07-07T03:16:02.042Z,18.88
2017-07-07T03:16:42.614Z,18.92
2017-07-07T03:17:23.179Z,18.99
2017-07-07T03:18:03.758Z,18.9
2017-07-07T03:18:44.347Z,18.89
2017-07-07T03:19:24.914Z,18.9
2017-07-07T03:20:05.482Z,18.98
2017-07-07T03:20:46.059Z,18.9
2017-07-07T03:21:26.630Z,18.88
2017-07-07T03:22:07.197Z,18.88
2017-07-07T03:22:47.788Z,18.84
2017-07-07T03:23:28.358Z,18.92
2017-07-07T03:24:08.946Z,18.89
2017-07-07T03:24:49.522Z,18.96
2017-07-07T03:25:30.094Z,18.84
2017-07-07T03:26:10.679Z,18.96
2017-07-07T03:26:51.292Z,18.99
2017-07-07T03:27:31.850Z,18.9
2017-07-07T03:28:12.426Z,18.95
2017-07-07T03:28:53.017Z,18.9
2017-07-07T03:29:33.619Z,18.9
2017-07-07T03:30:14.198Z,18.88
2017-07-07T03:30:54.761Z,18.89
2017-07-07T03:31:35.382Z,18.89
2017-07-07T03:32:15.916Z,18.98
2017-07-07T03:32:56.500Z,18.89
2017-07-07T03:33:37.067Z,18.9
2017-07-07T03:34:17.661Z,18.93
2017-07-07T03:34:58.239Z,18.89
2017-07-07T03:35:38.823Z,18.9
2017-07-07T03:36:19.414Z,18.92
2017-07-07T03:36:59.993Z,18.99
2017-07-07T03:37:40.578Z,18.89
2017-07-07T03:38:21.166Z,19.02
2017-07-07T03:39:01.736Z,18.93
2017-07-07T03:39:42.309Z,18.89
2017-07-07T03:40:22.892Z,18.92
2017-07-07T03:41:03.466Z,18.88
2017-07-07T03:41:44.050Z,18.89
2017-07-07T03:42:24.662Z,18.92
2017-07-07T03:43:05.223Z,18.9
2017-07-07T03:43:45.823Z,18.92
2017-07-07T03:44:26.389Z,18.9
2017-07-07T03:45:06.961Z,18.96
2017-07-07T03:45:47.531Z,18.96
2017-07-07T03:46:28.109Z,18.96
2017-07-07T03:47:08.696Z,19
2017-07-07T03:47:49.285Z,18.93
2017-07-07T03:48:29.868Z,18.93
2017-07-07T03:49:10.450Z,18.92
2017-07-07T03:49:51.059Z,18.96
2017-07-07T03:50:31.635Z,19.04
2017-07-07T03:51:12.223Z,19.04
2017-07-07T03:51:52.790Z,18.96
2017-07-07T03:52:33.374Z,18.93
2017-07-07T03:53:13.940Z,18.9
2017-07-07T03:53:54.507Z,18.89
2017-07-07T03:54:35.102Z,18.9
2017-07-07T03:55:15.674Z,18.9
2017-07-07T03:55:56.261Z,18.98
2017-07-07T03:56:36.843Z,18.89
2017-07-07T03:57:17.438Z,18.99
2017-07-07T03:57:58.041Z,19.02
2017-07-07T03:58:38.638Z,19.02
2017-07-07T03:59:19.224Z,19.07
2017-07-07T03:59:59.787Z,18.96
2017-07-07T04:00:40.386Z,18.96
2017-07-07T04:01:20.969Z,18.96
2017-07-07T04:02:01.538Z,19.02
2017-07-07T04:02:42.108Z,19.07
2017-07-07T04:03:22.680Z,18.9
2017-07-07T04:04:03.264Z,18.99
2017-07-07T04:04:43.838Z,18.89
2017-07-07T04:05:24.409Z,18.95
2017-07-07T04:06:05.005Z,18.89
2017-07-07T04:06:45.576Z,18.9
2017-07-07T04:07:26.134Z,19
2017-07-07T04:08:06.696Z,18.9
2017-07-07T04:08:47.274Z,18.93
2017-07-07T04:09:27.841Z,18.92
2017-07-07T04:10:08.410Z,18.88
2017-07-07T04:10:48.983Z,18.95
2017-07-07T04:11:29.595Z,18.92
2017-07-07T04:12:10.187Z,18.93
2017-07-07T04:12:50.757Z,18.95
2017-07-07T04:13:31.321Z,18.88
2017-07-07T04:14:11.900Z,18.88
2017-07-07T04:14:52.476Z,18.9
2017-07-07T04:15:33.044Z,19.02
2017-07-07T04:16:13.608Z,18.89
2017-07-07T04:16:54.189Z,18.89
2017-07-07T04:17:34.763Z,18.88
2017-07-07T04:18:15.329Z,19.04
2017-07-07T04:18:55.934Z,18.88
2017-07-07T04:19:36.517Z,18.89
2017-07-07T04:20:17.103Z,18.9
2017-07-07T04:20:57.693Z,18.93
2017-07-07T04:21:38.268Z,18.9
2017-07-07T04:22:18.882Z,18.88
2017-07-07T04:22:59.464Z,18.84
2017-07-07T04:23:40.026Z,18.89
2017-07-07T04:24:20.721Z,18.86
2017-07-07T04:25:01.303Z,18.9
2017-07-07T04:25:41.883Z,18.89
2017-07-07T04:26:22.466Z,18.96
2017-07-07T04:27:03.062Z,18.95
2017-07-07T04:27:43.643Z,19
2017-07-07T04:28:24.224Z,18.95
2017-07-07T04:29:04.845Z,18.92
2017-07-07T04:29:45.446Z,19.07
2017-07-07T04:30:26.016Z,18.93
2017-07-07T04:31:06.594Z,18.93
2017-07-07T04:31:47.183Z,18.93
2017-07-07T04:32:27.792Z,18.92
2017-07-07T04:33:08.375Z,18.92
2017-07-07T04:33:49.019Z,18.92
2017-07-07T04:34:29.655Z,18.95
2017-07-07T04:35:10.226Z,19
2017-07-07T04:35:50.853Z,19
2017-07-07T04:36:31.431Z,18.93
2017-07-07T04:37:12.015Z,19.04
2017-07-07T04:37:52.582Z,19.04
2017-07-07T04:38:33.140Z,19
2017-07-07T04:39:13.711Z,19
2017-07-07T04:39:54.289Z,18.96
2017-07-07T04:40:34.842Z,19.07
2017-07-07T04:41:15.406Z,19.02
2017-07-07T04:41:55.979Z,19
2017-07-07T04:42:36.555Z,19.02
2017-07-07T04:43:17.162Z,19.04
2017-07-07T04:43:57.735Z,19.08
2017-07-07T04:44:38.306Z,19.08
2017-07-07T04:45:18.879Z,19.11
2017-07-07T04:45:59.449Z,19.08
2017-07-07T04:46:40.013Z,19.08
2017-07-07T04:47:20.596Z,19
2017-07-07T04:48:01.174Z,19.07
2017-07-07T04:48:41.780Z,19.02
2017-07-07T04:49:23.575Z,19.02
2017-07-07T04:50:04.161Z,19
2017-07-07T04:50:44.737Z,19.02
2017-07-07T04:51:25.313Z,19.04
2017-07-07T04:52:05.876Z,19.07
2017-07-07T04:52:46.541Z,19.07
2017-07-07T04:53:27.136Z,18.95
2017-07-07T04:54:07.716Z,18.95
2017-07-07T04:54:48.285Z,19.08
2017-07-07T04:55:28.863Z,18.98
2017-07-07T04:56:09.427Z,19.04
2017-07-07T04:56:50.001Z,18.93
2017-07-07T04:57:30.584Z,19.04
2017-07-07T04:58:11.241Z,18.99
2017-07-07T04:58:51.819Z,18.99
2017-07-07T04:59:32.406Z,18.99
2017-07-07T05:00:12.981Z,19
2017-07-07T05:00:53.551Z,18.95
2017-07-07T05:01:34.142Z,19.04
2017-07-07T05:02:14.725Z,19.04
2017-07-07T05:02:55.308Z,18.99
2017-07-07T05:03:35.919Z,19
2017-07-07T05:04:16.516Z,19.08
2017-07-07T05:04:57.094Z,19.04
2017-07-07T05:05:37.660Z,19.04
2017-07-07T05:06:18.336Z,18.99
2017-07-07T05:06:58.906Z,19.04
2017-07-07T05:07:39.497Z,19.12
2017-07-07T05:08:20.080Z,19.07
2017-07-07T05:09:00.650Z,19.04
2017-07-07T05:09:41.256Z,19.11
2017-07-07T05:10:21.841Z,19.02
2017-07-07T05:11:02.416Z,19.12
2017-07-07T05:11:42.988Z,19.16
2017-07-07T05:12:23.548Z,19.16
2017-07-07T05:13:04.117Z,19.15
2017-07-07T05:13:44.692Z,19.19
2017-07-07T05:14:25.294Z,19.26
2017-07-07T05:15:05.877Z,19.26
2017-07-07T05:15:46.461Z,19.26
2017-07-07T05:16:27.058Z,19.21
2017-07-07T05:17:07.622Z,19.15
2017-07-07T05:17:48.178Z,19.16
2017-07-07T05:18:28.745Z,19.19
2017-07-07T05:19:09.309Z,19.21
2017-07-07T05:19:49.878Z,19.26
2017-07-07T05:20:30.445Z,19.24
2017-07-07T05:21:11.021Z,19.16
2017-07-07T05:21:51.576Z,19.22
2017-07-07T05:22:32.157Z,19.24
2017-07-07T05:23:12.746Z,19.27
2017-07-07T05:23:53.338Z,19.29
2017-07-07T05:24:33.907Z,19.26
2017-07-07T05:25:14.486Z,19.31
2017-07-07T05:25:55.064Z,19.19
2017-07-07T05:26:35.644Z,19.19
2017-07-07T05:27:16.208Z,19.24
2017-07-07T05:27:56.782Z,19.21
2017-07-07T05:28:37.338Z,19.12
2017-07-07T05:29:17.930Z,19.16
2017-07-07T05:29:58.498Z,19.07
2017-07-07T05:30:39.062Z,19
2017-07-07T05:31:19.669Z,19
2017-07-07T05:32:00.256Z,18.89
2017-07-07T05:32:40.801Z,19
2017-07-07T05:33:21.447Z,18.93
2017-07-07T05:34:02.039Z,19.02
2017-07-07T05:34:42.610Z,18.99
2017-07-07T05:35:23.183Z,19.02
2017-07-07T05:36:03.743Z,18.96
2017-07-07T05:36:44.305Z,18.92
2017-07-07T05:37:24.906Z,19.02
2017-07-07T05:38:05.487Z,19.04
2017-07-07T05:38:46.098Z,18.99
2017-07-07T05:39:26.690Z,19.07
2017-07-07T05:40:07.259Z,19.09
2017-07-07T05:40:47.835Z,19
2017-07-07T05:41:28.401Z,19.09
2017-07-07T05:42:08.976Z,19
2017-07-07T05:42:49.546Z,19.02
2017-07-07T05:43:30.104Z,19.11
2017-07-07T05:44:10.676Z,19.04
2017-07-07T05:44:51.270Z,19.08
2017-07-07T05:45:31.846Z,19.08
2017-07-07T05:46:12.414Z,19.12
2017-07-07T05:46:52.990Z,19.08
2017-07-07T05:47:33.558Z,19.07
2017-07-07T05:48:14.125Z,19.08
2017-07-07T05:48:54.702Z,19.07
2017-07-07T05:49:35.284Z,19.08
2017-07-07T05:50:15.845Z,19.02
2017-07-07T05:50:56.449Z,19.08
2017-07-07T05:51:37.034Z,19.04
2017-07-07T05:52:17.602Z,18.99
2017-07-07T05:52:58.172Z,19.09
2017-07-07T05:53:38.736Z,19.07
2017-07-07T05:54:19.308Z,19.04
2017-07-07T05:54:59.890Z,19.12
2017-07-07T05:55:40.482Z,19.07
2017-07-07T05:56:21.046Z,19.12
2017-07-07T05:57:01.607Z,19.07
2017-07-07T05:57:42.172Z,19
2017-07-07T05:58:22.754Z,18.99
2017-07-07T05:59:03.322Z,19.07
2017-07-07T05:59:43.887Z,19.09
2017-07-07T06:00:24.526Z,19.07
2017-07-07T06:01:05.169Z,19.02
2017-07-07T06:01:45.730Z,19.11
2017-07-07T06:02:26.303Z,19.02
2017-07-07T06:03:06.881Z,19.11
2017-07-07T06:03:47.473Z,19.04
2017-07-07T06:04:29.935Z,19
2017-07-07T06:05:09.458Z,19.12
2017-07-07T06:05:50.021Z,19.11
2017-07-07T06:06:30.598Z,19.04
2017-07-07T06:07:11.168Z,19.07
2017-07-07T06:07:52.437Z,19.09
2017-07-07T06:08:33.027Z,19
2017-07-07T06:09:13.653Z,19.09
2017-07-07T06:09:54.227Z,19.04
2017-07-07T06:10:35.082Z,19.16
2017-07-07T06:11:15.674Z,19.08
2017-07-07T06:11:56.264Z,19.04
2017-07-07T06:12:36.866Z,19.14
2017-07-07T06:13:17.414Z,19.14
2017-07-07T06:13:57.983Z,19.18
2017-07-07T06:14:38.549Z,19.11
2017-07-07T06:15:19.116Z,19.15
2017-07-07T06:15:59.692Z,19.18
2017-07-07T06:16:40.269Z,19.18
2017-07-07T06:17:20.841Z,19.24
2017-07-07T06:18:01.431Z,19.22
2017-07-07T06:18:42.011Z,19.18
2017-07-07T06:19:22.579Z,19.15
2017-07-07T06:20:03.147Z,19.27
2017-07-07T06:20:43.725Z,19.19
2017-07-07T06:21:24.298Z,19.19
2017-07-07T06:22:04.864Z,19.26
2017-07-07T06:22:45.464Z,19.29
2017-07-07T06:23:26.046Z,19.26
2017-07-07T06:24:06.606Z,19.27
2017-07-07T06:24:47.197Z,19.19
2017-07-07T06:25:27.789Z,19.22
2017-07-07T06:26:08.373Z,19.22
2017-07-07T06:26:48.942Z,19.22
2017-07-07T06:27:29.517Z,19.3
2017-07-07T06:28:10.089Z,19.21
2017-07-07T06:28:50.666Z,19.26
2017-07-07T06:29:31.230Z,19.34
2017-07-07T06:30:11.818Z,19.29
2017-07-07T06:30:52.419Z,19.27
2017-07-07T06:31:32.999Z,19.26
2017-07-07T06:32:13.577Z,19.36
2017-07-07T06:32:54.146Z,19.31
2017-07-07T06:33:34.726Z,19.36
2017-07-07T06:34:15.295Z,19.33
2017-07-07T06:34:55.858Z,19.31
2017-07-07T06:35:36.460Z,19.3
2017-07-07T06:36:17.025Z,19.31
2017-07-07T06:36:57.589Z,19.3
2017-07-07T06:37:38.165Z,19.31
2017-07-07T06:38:18.732Z,19.37
2017-07-07T06:38:59.346Z,19.26
2017-07-07T06:39:39.941Z,19.4
2017-07-07T06:40:20.514Z,19.39
2017-07-07T06:41:01.087Z,19.3
2017-07-07T06:41:41.656Z,19.37
2017-07-07T06:42:22.233Z,19.37
2017-07-07T06:43:02.817Z,19.39
2017-07-07T06:43:43.403Z,19.37
2017-07-07T06:44:24.032Z,19.33
2017-07-07T06:45:04.577Z,19.33
2017-07-07T06:45:45.162Z,19.21
2017-07-07T06:46:25.910Z,19.24
2017-07-07T06:47:06.407Z,19.16
2017-07-07T06:47:47.002Z,19.24
2017-07-07T06:48:27.571Z,19.21
2017-07-07T06:49:08.135Z,19.15
2017-07-07T06:49:48.725Z,19.18
2017-07-07T06:50:29.499Z,19.16
2017-07-07T06:51:10.445Z,19.16
2017-07-07T06:51:51.044Z,19.16
2017-07-07T06:52:31.666Z,19.12
2017-07-07T06:53:12.264Z,19.16
2017-07-07T06:53:52.865Z,19.15
2017-07-07T06:54:33.612Z,19.21
2017-07-07T06:55:14.183Z,19.21
2017-07-07T06:55:54.796Z,19.19
2017-07-07T06:56:35.410Z,19.31
2017-07-07T06:57:16.072Z,19.27
2017-07-07T06:57:56.692Z,19.26
2017-07-07T06:58:37.301Z,19.21
2017-07-07T06:59:17.876Z,19.31
2017-07-07T06:59:58.450Z,19.26
2017-07-07T07:00:39.012Z,19.31
2017-07-07T07:01:19.573Z,19.34
2017-07-07T07:02:00.168Z,19.15
2017-07-07T07:02:40.761Z,19.37
2017-07-07T07:03:21.323Z,19.34
2017-07-07T07:04:01.994Z,19.33
2017-07-07T07:04:42.666Z,19.36
2017-07-07T07:05:23.268Z,19.34
2017-07-07T07:06:03.847Z,19.37
2017-07-07T07:06:44.420Z,19.33
2017-07-07T07:07:24.987Z,19.27
2017-07-07T07:08:05.800Z,19.27
2017-07-07T07:08:46.445Z,19.27
2017-07-07T07:09:27.023Z,19.3
2017-07-07T07:10:07.625Z,19.27
2017-07-07T07:10:48.218Z,19.29
2017-07-07T07:11:28.830Z,19.22
2017-07-07T07:12:09.388Z,19.27
2017-07-07T07:12:49.962Z,19.27
2017-07-07T07:13:30.564Z,19.26
2017-07-07T07:14:11.205Z,19.26
2017-07-07T07:14:51.745Z,19.29
2017-07-07T07:15:32.357Z,19.27
2017-07-07T07:16:12.930Z,19.26
2017-07-07T07:16:53.816Z,19.22
2017-07-07T07:17:34.405Z,19.18
2017-07-07T07:18:14.993Z,19.29
2017-07-07T07:18:55.560Z,19.22
2017-07-07T07:19:36.153Z,19.19
2017-07-07T07:20:16.755Z,19.12
2017-07-07T07:20:57.438Z,19.16
2017-07-07T07:21:38.016Z,19.15
2017-07-07T07:22:18.581Z,19.04
2017-07-07T07:22:59.192Z,19.11
2017-07-07T07:23:39.747Z,19.08
2017-07-07T07:24:20.315Z,19.09
2017-07-07T07:25:00.915Z,19.08
2017-07-07T07:25:41.543Z,19.04
2017-07-07T07:26:22.142Z,18.98
2017-07-07T07:27:02.728Z,18.99
2017-07-07T07:27:43.297Z,19.07
2017-07-07T07:28:23.864Z,18.92
2017-07-07T07:29:04.437Z,18.92
2017-07-07T07:29:45.028Z,18.92
2017-07-07T07:30:25.617Z,19.07
2017-07-07T07:31:06.200Z,19
2017-07-07T07:31:46.788Z,19.04
2017-07-07T07:32:27.372Z,19.02
2017-07-07T07:33:07.934Z,19.12
2017-07-07T07:33:48.520Z,19.07
2017-07-07T07:34:29.090Z,19.04
2017-07-07T07:35:09.674Z,19.12
2017-07-07T07:35:50.255Z,19.14
2017-07-07T07:36:30.892Z,19.16
2017-07-07T07:37:11.428Z,19.18
2017-07-07T07:37:52.007Z,19.14
2017-07-07T07:38:32.605Z,19.18
2017-07-07T07:39:13.186Z,19.16
2017-07-07T07:39:53.769Z,19.18
2017-07-07T07:40:34.382Z,19.19
2017-07-07T07:41:14.973Z,19.18
2017-07-07T07:41:55.566Z,19.22
2017-07-07T07:42:36.141Z,19.21
2017-07-07T07:43:16.761Z,19.24
2017-07-07T07:43:57.343Z,19.15
2017-07-07T07:44:37.927Z,19.14
2017-07-07T07:45:18.526Z,19.18
2017-07-07T07:45:59.109Z,19.15
2017-07-07T07:46:39.667Z,19.26
2017-07-07T07:47:20.238Z,19.22
2017-07-07T07:48:00.822Z,19.24
2017-07-07T07:48:41.416Z,19.21
2017-07-07T07:49:21.985Z,19.26
2017-07-07T07:50:02.570Z,19.22
2017-07-07T07:50:43.155Z,19.22
2017-07-07T07:51:23.752Z,19.19
2017-07-07T07:52:04.326Z,19.29
2017-07-07T07:52:44.931Z,19.22
2017-07-07T07:53:25.540Z,19.27
2017-07-07T07:54:06.159Z,19.15
2017-07-07T07:54:46.726Z,19.27
2017-07-07T07:55:27.315Z,19.19
2017-07-07T07:56:07.890Z,19.27
2017-07-07T07:56:48.479Z,19.19
2017-07-07T07:57:29.050Z,19.18
2017-07-07T07:58:09.619Z,19.15
2017-07-07T07:58:50.196Z,19.22
2017-07-07T07:59:30.784Z,19.22
2017-07-07T08:00:11.355Z,19.26
2017-07-07T08:00:51.925Z,19.27
2017-07-07T08:01:32.494Z,19.26
2017-07-07T08:02:13.090Z,19.3
2017-07-07T08:02:53.675Z,19.3
2017-07-07T08:03:34.238Z,19.21
2017-07-07T08:04:14.820Z,19.21
2017-07-07T08:04:55.391Z,19.27
2017-07-07T08:05:35.979Z,19.22
2017-07-07T08:06:16.555Z,19.22
2017-07-07T08:06:57.172Z,19.16
2017-07-07T08:07:37.748Z,19.3
2017-07-07T08:08:18.320Z,19.24
2017-07-07T08:08:58.928Z,19.3
2017-07-07T08:09:39.490Z,19.34
2017-07-07T08:10:20.087Z,19.27
2017-07-07T08:11:00.660Z,19.3
2017-07-07T08:11:41.295Z,19.3
2017-07-07T08:12:21.853Z,19.33
2017-07-07T08:13:02.428Z,19.37
2017-07-07T08:13:43.000Z,19.37
2017-07-07T08:14:23.568Z,19.41
2017-07-07T08:15:04.133Z,19.34
2017-07-07T08:15:44.708Z,19.37
2017-07-07T08:16:25.289Z,19.33
2017-07-07T08:17:05.853Z,19.36
2017-07-07T08:17:46.421Z,19.34
2017-07-07T08:18:26.990Z,19.29
2017-07-07T08:19:07.557Z,19.31
2017-07-07T08:19:48.135Z,19.4
2017-07-07T08:20:28.709Z,19.41
2017-07-07T08:21:09.277Z,19.39
2017-07-07T08:21:49.855Z,19.36
2017-07-07T08:22:30.433Z,19.39
2017-07-07T08:23:11.012Z,19.36
2017-07-07T08:23:51.593Z,19.47
2017-07-07T08:24:32.168Z,19.36
2017-07-07T08:25:12.738Z,19.44
2017-07-07T08:25:53.307Z,19.37
2017-07-07T08:26:33.884Z,19.39
2017-07-07T08:27:14.468Z,19.41
2017-07-07T08:27:55.044Z,19.39
2017-07-07T08:28:35.621Z,19.39
2017-07-07T08:29:16.186Z,19.41
2017-07-07T08:29:56.758Z,19.45
2017-07-07T08:30:37.364Z,19.44
2017-07-07T08:31:17.945Z,19.4
2017-07-07T08:31:58.522Z,19.49
2017-07-07T08:32:39.096Z,19.44
2017-07-07T08:33:19.681Z,19.41
2017-07-07T08:34:00.278Z,19.49
2017-07-07T08:34:40.845Z,19.51
2017-07-07T08:35:21.441Z,19.48
2017-07-07T08:36:02.008Z,19.47
2017-07-07T08:36:42.572Z,19.51
2017-07-07T08:37:23.144Z,19.41
2017-07-07T08:38:03.713Z,19.52
2017-07-07T08:38:44.274Z,19.51
2017-07-07T08:39:24.854Z,19.45
2017-07-07T08:40:05.434Z,19.48
2017-07-07T08:40:46.020Z,19.47
2017-07-07T08:41:26.615Z,19.51
2017-07-07T08:42:07.200Z,19.41
2017-07-07T08:42:47.783Z,19.51
2017-07-07T08:43:28.358Z,19.52
2017-07-07T08:44:08.934Z,19.39
2017-07-07T08:44:49.508Z,19.56
2017-07-07T08:45:30.081Z,19.47
2017-07-07T08:46:10.649Z,19.51
2017-07-07T08:46:51.234Z,19.52